createdAt,value
2018-08-09T00:01:43.628Z,26.00
2018-08-09T00:06:46.735Z,25.90
2018-08-09T00:11:49.822Z,25.80
2018-08-09T00:16:52.927Z,25.60
2018-08-09T00:21:56.030Z,25.40
2018-08-09T00:26:59.151Z,25.40
2018-08-09T00:32:02.252Z,25.40
2018-08-09T00:37:05.544Z,25.30
2018-08-09T00:42:08.661Z,25.20
2018-08-09T00:47:11.840Z,25.10
2018-08-09T00:52:14.954Z,25.00
2018-08-09T00:57:18.043Z,25.00
2018-08-09T01:02:21.283Z,24.90
2018-08-09T01:07:24.463Z,24.80
2018-08-09T01:12:27.588Z,24.80
2018-08-09T01:17:30.726Z,24.70
2018-08-09T01:22:33.816Z,24.60
2018-08-09T01:27:36.923Z,24.60
2018-08-09T01:32:40.029Z,24.60
2018-08-09T01:37:43.131Z,24.60
2018-08-09T01:42:57.843Z,24.50
2018-08-09T01:48:00.943Z,24.50
2018-08-09T01:53:04.039Z,24.50
2018-08-09T01:58:07.135Z,24.50
2018-08-09T02:03:10.252Z,24.50
2018-08-09T02:08:13.346Z,24.40
2018-08-09T02:13:16.459Z,24.30
2018-08-09T02:18:19.495Z,24.40
2018-08-09T02:23:22.611Z,24.40
2018-08-09T02:28:25.703Z,24.30
2018-08-09T02:33:28.796Z,24.30
2018-08-09T02:38:31.903Z,24.30
2018-08-09T02:43:35.006Z,24.20
2018-08-09T02:48:38.117Z,24.20
2018-08-09T02:53:41.272Z,24.10
2018-08-09T02:58:44.362Z,24.00
2018-08-09T03:03:47.456Z,24.00
2018-08-09T03:08:50.551Z,24.00
2018-08-09T03:13:53.666Z,23.90
2018-08-09T03:18:56.763Z,23.90
2018-08-09T03:23:59.851Z,23.80
2018-08-09T03:29:03.039Z,23.80
2018-08-09T03:34:06.217Z,23.80
2018-08-09T03:39:10.811Z,23.80
2018-08-09T03:44:13.963Z,23.80
2018-08-09T03:49:17.068Z,23.80
2018-08-09T03:54:20.180Z,23.80
2018-08-09T03:59:23.264Z,23.80
2018-08-09T04:04:26.387Z,23.80
2018-08-09T04:09:29.471Z,23.80
2018-08-09T04:14:32.607Z,23.80
2018-08-09T04:19:35.707Z,23.80
2018-08-09T04:24:38.812Z,23.70
2018-08-09T04:29:41.938Z,23.70
2018-08-09T04:34:45.044Z,23.60
2018-08-09T04:39:48.137Z,23.60
2018-08-09T04:44:51.247Z,23.70
2018-08-09T04:49:54.350Z,23.70
2018-08-09T04:54:57.435Z,23.60
2018-08-09T05:00:00.532Z,23.70
2018-08-09T05:05:03.667Z,23.70
2018-08-09T05:10:10.770Z,23.70
2018-08-09T05:15:14.078Z,23.70
2018-08-09T05:20:17.159Z,23.80
2018-08-09T05:25:20.327Z,23.80
2018-08-09T05:30:23.427Z,23.90
2018-08-09T05:35:26.679Z,24.00
2018-08-09T05:40:29.792Z,24.10
2018-08-09T05:45:32.911Z,24.20
2018-08-09T05:50:36.032Z,24.30
2018-08-09T05:55:39.149Z,24.30
2018-08-09T06:00:42.252Z,24.40
2018-08-09T06:05:45.424Z,24.50
2018-08-09T06:10:49.083Z,24.50
2018-08-09T06:15:52.163Z,24.60
2018-08-09T06:20:55.351Z,24.70
2018-08-09T06:25:58.485Z,24.90
2018-08-09T06:31:01.581Z,25.10
2018-08-09T06:36:04.719Z,25.20
2018-08-09T06:41:07.839Z,25.40
2018-08-09T06:46:10.939Z,25.60
2018-08-09T06:51:14.050Z,25.80
2018-08-09T06:56:17.216Z,25.90
2018-08-09T07:01:20.283Z,26.10
2018-08-09T07:06:23.475Z,26.20
2018-08-09T07:11:26.574Z,26.40
2018-08-09T07:16:29.687Z,26.60
2018-08-09T07:21:32.786Z,26.70
2018-08-09T07:26:35.919Z,26.90
2018-08-09T07:31:39.015Z,27.10
2018-08-09T07:36:42.188Z,27.30
2018-08-09T07:41:45.331Z,27.40
2018-08-09T07:46:48.427Z,27.60
2018-08-09T07:51:51.564Z,27.90
2018-08-09T07:56:54.672Z,28.00
2018-08-09T08:01:57.751Z,28.10
2018-08-09T08:07:00.859Z,28.40
2018-08-09T08:12:03.951Z,28.60
2018-08-09T08:17:07.055Z,28.90
2018-08-09T08:22:10.156Z,29.10
2018-08-09T08:27:13.284Z,29.30
2018-08-09T08:32:16.504Z,29.40
2018-08-09T08:37:19.603Z,29.50
2018-08-09T08:42:22.707Z,29.70
2018-08-09T08:47:25.837Z,29.90
2018-08-09T08:52:29.031Z,30.00
2018-08-09T08:57:32.144Z,30.30
2018-08-09T09:02:35.580Z,30.70
2018-08-09T09:07:39.108Z,31.00
2018-08-09T09:12:42.286Z,31.20
2018-08-09T09:17:45.393Z,31.40
2018-08-09T09:22:55.121Z,31.60
2018-08-09T09:27:58.233Z,31.70
2018-08-09T09:33:01.339Z,31.90
2018-08-09T09:38:04.644Z,32.10
2018-08-09T09:43:07.783Z,32.20
2018-08-09T09:48:10.913Z,32.50
2018-08-09T09:53:14.001Z,32.60
2018-08-09T09:58:17.196Z,32.80
2018-08-09T10:03:20.421Z,32.90
2018-08-09T10:08:23.511Z,33.10
2018-08-09T10:13:27.739Z,33.30
2018-08-09T10:18:30.879Z,33.60
2018-08-09T10:23:34.086Z,33.70
2018-08-09T10:28:37.203Z,33.70
2018-08-09T10:33:40.386Z,33.70
2018-08-09T10:38:43.587Z,33.90
2018-08-09T10:43:47.624Z,34.10
2018-08-09T10:48:50.712Z,34.30
2018-08-09T10:53:54.080Z,34.40
2018-08-09T10:58:57.202Z,34.50
2018-08-09T11:04:00.288Z,34.60
2018-08-09T11:09:05.756Z,34.70
2018-08-09T11:14:08.840Z,35.00
2018-08-09T11:19:11.911Z,35.00
2018-08-09T11:24:15.020Z,35.10
2018-08-09T11:29:18.118Z,35.20
2018-08-09T11:34:21.239Z,35.30
2018-08-09T11:39:24.343Z,35.40
2018-08-09T11:44:27.463Z,35.60
2018-08-09T11:49:30.573Z,35.80
2018-08-09T11:54:33.699Z,35.90
2018-08-09T11:59:36.799Z,36.10
2018-08-09T12:04:40.114Z,36.20
2018-08-09T12:09:43.293Z,36.20
2018-08-09T12:14:46.399Z,36.30
2018-08-09T12:19:49.521Z,36.30
2018-08-09T12:24:52.645Z,36.30
2018-08-09T12:29:55.771Z,36.30
2018-08-09T12:34:58.860Z,36.30
2018-08-09T12:40:02.032Z,36.40
2018-08-09T12:45:06.155Z,36.30
2018-08-09T12:50:12.512Z,36.20
2018-08-09T12:55:15.598Z,36.10
2018-08-09T13:00:18.716Z,36.00
2018-08-09T13:05:21.824Z,35.90
2018-08-09T13:10:24.962Z,35.80
2018-08-09T13:15:28.082Z,35.80
2018-08-09T13:20:31.181Z,35.80
2018-08-09T13:25:34.287Z,36.00
2018-08-09T13:30:37.836Z,36.10
2018-08-09T13:35:42.116Z,36.10
2018-08-09T13:40:45.211Z,36.10
2018-08-09T13:45:48.338Z,36.00
2018-08-09T13:50:51.452Z,35.90
2018-08-09T13:55:54.592Z,35.70
2018-08-09T14:00:57.820Z,35.70
2018-08-09T14:06:00.923Z,35.60
2018-08-09T14:11:04.035Z,35.50
2018-08-09T14:16:07.638Z,35.40
2018-08-09T14:21:10.668Z,35.30
2018-08-09T14:26:13.785Z,35.30
2018-08-09T14:31:16.879Z,35.20
2018-08-09T14:36:20.035Z,35.20
2018-08-09T14:41:23.107Z,35.30
2018-08-09T14:46:26.208Z,35.20
2018-08-09T14:51:29.307Z,35.10
2018-08-09T14:56:32.420Z,35.10
2018-08-09T15:01:35.598Z,35.00
2018-08-09T15:06:38.721Z,34.80
2018-08-09T15:11:42.039Z,34.70
2018-08-09T15:16:45.132Z,34.60
2018-08-09T15:21:48.231Z,34.50
2018-08-09T15:26:51.348Z,34.50
2018-08-09T15:31:54.465Z,34.30
2018-08-09T15:36:57.560Z,34.30
2018-08-09T15:42:00.696Z,34.20
2018-08-09T15:47:03.850Z,34.10
2018-08-09T15:52:06.965Z,34.00
2018-08-09T15:57:10.097Z,34.00
2018-08-09T16:02:13.290Z,33.90
2018-08-09T16:07:16.496Z,33.90
2018-08-09T16:12:19.708Z,33.90
2018-08-09T16:17:22.927Z,33.80
2018-08-09T16:22:26.033Z,33.70
2018-08-09T16:27:29.156Z,33.70
2018-08-09T16:32:32.316Z,33.70
2018-08-09T16:37:35.448Z,33.60
2018-08-09T16:42:38.543Z,33.60
2018-08-09T16:47:41.704Z,33.50
2018-08-09T16:52:45.275Z,33.50
2018-08-09T16:57:48.512Z,33.40
2018-08-09T17:02:52.695Z,33.30
2018-08-09T17:07:55.859Z,33.30
2018-08-09T17:12:58.955Z,33.20
2018-08-09T17:18:02.079Z,33.10
2018-08-09T17:23:05.213Z,32.80
2018-08-09T17:28:08.332Z,32.40
2018-08-09T17:33:11.444Z,31.90
2018-08-09T17:38:14.580Z,31.50
2018-08-09T17:43:17.771Z,31.10
2018-08-09T17:48:20.895Z,30.80
2018-08-09T17:53:24.079Z,30.50
2018-08-09T17:58:27.218Z,30.30
2018-08-09T18:03:30.340Z,30.00
2018-08-09T18:08:39.862Z,29.80
2018-08-09T18:13:43.003Z,29.50
2018-08-09T18:18:46.174Z,29.40
2018-08-09T18:23:49.420Z,29.20
2018-08-09T18:28:52.547Z,29.10
2018-08-09T18:33:55.656Z,28.90
2018-08-09T18:38:58.836Z,28.70
2018-08-09T18:44:01.952Z,28.60
2018-08-09T18:54:14.532Z,28.40
2018-08-09T18:59:17.692Z,28.30
2018-08-09T19:04:20.756Z,28.30
2018-08-09T19:09:23.876Z,28.20
2018-08-09T19:14:27.048Z,28.10
2018-08-09T19:19:30.150Z,28.00
2018-08-09T19:24:33.280Z,28.00
2018-08-09T19:29:36.395Z,27.90
2018-08-09T19:34:39.504Z,27.80
2018-08-09T19:39:42.635Z,27.70
2018-08-09T19:44:45.740Z,27.70
2018-08-09T19:49:48.849Z,27.60
2018-08-09T19:54:51.934Z,27.50
2018-08-09T19:59:55.085Z,27.40
2018-08-09T20:04:58.261Z,27.40
2018-08-09T20:10:01.388Z,27.30
2018-08-09T20:15:07.245Z,27.20
2018-08-09T20:20:11.812Z,27.20
2018-08-09T20:25:15.363Z,27.20
2018-08-09T20:30:19.089Z,27.10
2018-08-09T20:35:23.216Z,27.00
2018-08-09T20:40:26.315Z,27.00
2018-08-09T20:45:29.629Z,26.90
2018-08-09T20:50:32.741Z,26.90
2018-08-09T20:55:35.957Z,26.80
2018-08-09T21:00:39.120Z,26.80
2018-08-09T21:05:42.310Z,26.70
2018-08-09T21:10:45.416Z,26.60
2018-08-09T21:15:48.509Z,26.60
2018-08-09T21:20:51.614Z,26.50
2018-08-09T21:25:54.723Z,26.50
2018-08-09T21:30:57.841Z,26.40
2018-08-09T21:36:00.952Z,26.40
2018-08-09T21:41:04.028Z,26.30
2018-08-09T21:46:07.136Z,26.30
2018-08-09T21:51:10.236Z,26.20
2018-08-09T21:56:13.338Z,26.20
2018-08-09T22:01:16.433Z,26.10
2018-08-09T22:06:24.948Z,26.10
2018-08-09T22:11:33.410Z,26.00
2018-08-09T22:16:41.892Z,26.00
2018-08-09T22:21:50.480Z,26.00
2018-08-09T22:26:53.648Z,26.00
2018-08-09T22:31:56.884Z,25.90
2018-08-09T22:36:59.980Z,25.90
2018-08-09T22:42:34.368Z,25.80
2018-08-09T22:47:37.488Z,25.80
2018-08-09T22:52:40.595Z,25.70
2018-08-09T22:57:43.713Z,25.70
2018-08-09T23:02:46.843Z,25.70
2018-08-09T23:07:50.601Z,25.60
2018-08-09T23:12:54.367Z,25.60
2018-08-09T23:17:57.629Z,25.50
2018-08-09T23:23:00.752Z,25.40
2018-08-09T23:28:03.884Z,25.30
2018-08-09T23:33:06.972Z,25.20
2018-08-09T23:38:10.070Z,25.10
2018-08-09T23:43:13.559Z,24.90
2018-08-09T23:48:16.660Z,24.80
2018-08-09T23:53:19.793Z,24.80
2018-08-09T23:58:23.027Z,24.80
